<?xml version="1.0" encoding="UTF-8" standalone="no" ?>
<gpx xmlns="http://www.topografix.com/GPX/1/1" xmlns:xsi="http://www.w3.org/2001/XMLSchema-instance" xsi:schemaLocation="http://www.topografix.com/GPX/1/1 http://www.topografix.com/GPX/1/1/gpx.xsd" version="1.1" creator="VisuGPX - https://www.visugpx.com">
  <metadata>
    <name>PIC DE MONTAUT-2021-01-07-152956</name>
    <desc><![CDATA[[b][i][url][img][/img][/url][/i][/b]]]></desc>
  </metadata>
  <trk>
    <name><![CDATA[MA-Rando-2021-01-07-152956]]></name>
    <trkseg>
      <trkpt lat="42.95074" lon="0.44526">
        <ele>1645.3486328125</ele>
        <time>2021-01-07T09:14:03Z</time>
      </trkpt>
      <trkpt lat="42.95083" lon="0.4452">
        <ele>1647.7622070312</ele>
        <time>2021-01-07T09:14:13Z</time>
      </trkpt>
      <trkpt lat="42.95092" lon="0.44521">
        <ele>1646.0888671875</ele>
        <time>2021-01-07T09:14:25Z</time>
      </trkpt>
      <trkpt lat="42.95099" lon="0.44505">
        <ele>1643.4838867188</ele>
        <time>2021-01-07T09:14:42Z</time>
      </trkpt>
      <trkpt lat="42.95104" lon="0.44494">
        <ele>1642.978515625</ele>
        <time>2021-01-07T09:14:51Z</time>
      </trkpt>
      <trkpt lat="42.95113" lon="0.44488">
        <ele>1640.2646484375</ele>
        <time>2021-01-07T09:14:58Z</time>
      </trkpt>
      <trkpt lat="42.95122" lon="0.44483">
        <ele>1638.232421875</ele>
        <time>2021-01-07T09:15:10Z</time>
      </trkpt>
      <trkpt lat="42.95127" lon="0.44471">
        <ele>1638.3969726562</ele>
        <time>2021-01-07T09:15:19Z</time>
      </trkpt>
      <trkpt lat="42.95132" lon="0.44459">
        <ele>1636.5805664062</ele>
        <time>2021-01-07T09:16:10Z</time>
      </trkpt>
      <trkpt lat="42.95135" lon="0.44447">
        <ele>1639.0346679688</ele>
        <time>2021-01-07T09:16:16Z</time>
      </trkpt>
      <trkpt lat="42.95136" lon="0.44434">
        <ele>1636.4907226562</ele>
        <time>2021-01-07T09:16:26Z</time>
      </trkpt>
      <trkpt lat="42.95141" lon="0.44422">
        <ele>1636.0034179688</ele>
        <time>2021-01-07T09:16:36Z</time>
      </trkpt>
      <trkpt lat="42.95147" lon="0.44413">
        <ele>1633.9074707031</ele>
        <time>2021-01-07T09:16:43Z</time>
      </trkpt>
      <trkpt lat="42.95151" lon="0.44402">
        <ele>1632.2646484375</ele>
        <time>2021-01-07T09:16:51Z</time>
      </trkpt>
      <trkpt lat="42.95155" lon="0.4439">
        <ele>1632.4460449219</ele>
        <time>2021-01-07T09:16:59Z</time>
      </trkpt>
      <trkpt lat="42.95159" lon="0.44378">
        <ele>1629.220703125</ele>
        <time>2021-01-07T09:17:11Z</time>
      </trkpt>
      <trkpt lat="42.95165" lon="0.44367">
        <ele>1625.5380859375</ele>
        <time>2021-01-07T09:17:20Z</time>
      </trkpt>
      <trkpt lat="42.95171" lon="0.44356">
        <ele>1623.6748046875</ele>
        <time>2021-01-07T09:17:30Z</time>
      </trkpt>
      <trkpt lat="42.95177" lon="0.44346">
        <ele>1617.65234375</ele>
        <time>2021-01-07T09:17:40Z</time>
      </trkpt>
      <trkpt lat="42.95185" lon="0.44339">
        <ele>1617.4033203125</ele>
        <time>2021-01-07T09:17:48Z</time>
      </trkpt>
      <trkpt lat="42.9519" lon="0.44326">
        <ele>1618.0297851562</ele>
        <time>2021-01-07T09:17:55Z</time>
      </trkpt>
      <trkpt lat="42.95194" lon="0.44314">
        <ele>1615.9892578125</ele>
        <time>2021-01-07T09:18:05Z</time>
      </trkpt>
      <trkpt lat="42.952" lon="0.44305">
        <ele>1615.4409179688</ele>
        <time>2021-01-07T09:18:13Z</time>
      </trkpt>
      <trkpt lat="42.95208" lon="0.443">
        <ele>1611.697265625</ele>
        <time>2021-01-07T09:18:22Z</time>
      </trkpt>
      <trkpt lat="42.95216" lon="0.44292">
        <ele>1611.8056640625</ele>
        <time>2021-01-07T09:18:30Z</time>
      </trkpt>
      <trkpt lat="42.9522" lon="0.4428">
        <ele>1614.4633789062</ele>
        <time>2021-01-07T09:18:36Z</time>
      </trkpt>
      <trkpt lat="42.95225" lon="0.4427">
        <ele>1617.818359375</ele>
        <time>2021-01-07T09:18:43Z</time>
      </trkpt>
      <trkpt lat="42.95237" lon="0.44261">
        <ele>1614.3801269531</ele>
        <time>2021-01-07T09:19:03Z</time>
      </trkpt>
      <trkpt lat="42.95246" lon="0.44264">
        <ele>1612.2729492188</ele>
        <time>2021-01-07T09:19:17Z</time>
      </trkpt>
      <trkpt lat="42.95256" lon="0.44262">
        <ele>1609.3032226562</ele>
        <time>2021-01-07T09:19:29Z</time>
      </trkpt>
      <trkpt lat="42.95264" lon="0.44254">
        <ele>1605.7143554688</ele>
        <time>2021-01-07T09:19:40Z</time>
      </trkpt>
      <trkpt lat="42.95272" lon="0.44248">
        <ele>1605.267578125</ele>
        <time>2021-01-07T09:19:49Z</time>
      </trkpt>
      <trkpt lat="42.95281" lon="0.44242">
        <ele>1605.2280273438</ele>
        <time>2021-01-07T09:20:01Z</time>
      </trkpt>
      <trkpt lat="42.95293" lon="0.44248">
        <ele>1600.6762695312</ele>
        <time>2021-01-07T09:20:43Z</time>
      </trkpt>
      <trkpt lat="42.95303" lon="0.44251">
        <ele>1599.1608886719</ele>
        <time>2021-01-07T09:20:55Z</time>
      </trkpt>
      <trkpt lat="42.95313" lon="0.44248">
        <ele>1597.0290527344</ele>
        <time>2021-01-07T09:21:05Z</time>
      </trkpt>
      <trkpt lat="42.95321" lon="0.44243">
        <ele>1594.1206054688</ele>
        <time>2021-01-07T09:21:24Z</time>
      </trkpt>
      <trkpt lat="42.9533" lon="0.44241">
        <ele>1589.6435546875</ele>
        <time>2021-01-07T09:21:38Z</time>
      </trkpt>
      <trkpt lat="42.9534" lon="0.44243">
        <ele>1586.6918945312</ele>
        <time>2021-01-07T09:22:02Z</time>
      </trkpt>
      <trkpt lat="42.95349" lon="0.44245">
        <ele>1587.1589355469</ele>
        <time>2021-01-07T09:22:11Z</time>
      </trkpt>
      <trkpt lat="42.95358" lon="0.44244">
        <ele>1586.1293945312</ele>
        <time>2021-01-07T09:22:28Z</time>
      </trkpt>
      <trkpt lat="42.95366" lon="0.44238">
        <ele>1582.9809570312</ele>
        <time>2021-01-07T09:22:42Z</time>
      </trkpt>
      <trkpt lat="42.95379" lon="0.44234">
        <ele>1579.6772460938</ele>
        <time>2021-01-07T09:23:18Z</time>
      </trkpt>
      <trkpt lat="42.95387" lon="0.44226">
        <ele>1579.279296875</ele>
        <time>2021-01-07T09:23:43Z</time>
      </trkpt>
      <trkpt lat="42.95397" lon="0.44225">
        <ele>1574.4497070312</ele>
        <time>2021-01-07T09:24:06Z</time>
      </trkpt>
      <trkpt lat="42.95407" lon="0.44224">
        <ele>1567.544921875</ele>
        <time>2021-01-07T09:25:30Z</time>
      </trkpt>
      <trkpt lat="42.95417" lon="0.44222">
        <ele>1564.3706054688</ele>
        <time>2021-01-07T09:25:46Z</time>
      </trkpt>
      <trkpt lat="42.95426" lon="0.44221">
        <ele>1559.5703125</ele>
        <time>2021-01-07T09:26:05Z</time>
      </trkpt>
      <trkpt lat="42.95435" lon="0.44219">
        <ele>1551.7724609375</ele>
        <time>2021-01-07T09:26:32Z</time>
      </trkpt>
      <trkpt lat="42.95444" lon="0.44216">
        <ele>1549.0024414062</ele>
        <time>2021-01-07T09:26:50Z</time>
      </trkpt>
      <trkpt lat="42.95453" lon="0.44215">
        <ele>1543.2705078125</ele>
        <time>2021-01-07T09:28:44Z</time>
      </trkpt>
      <trkpt lat="42.95463" lon="0.44214">
        <ele>1540.45703125</ele>
        <time>2021-01-07T09:28:55Z</time>
      </trkpt>
      <trkpt lat="42.95472" lon="0.44213">
        <ele>1539.8286132812</ele>
        <time>2021-01-07T09:29:23Z</time>
      </trkpt>
      <trkpt lat="42.95481" lon="0.44212">
        <ele>1532.5075683594</ele>
        <time>2021-01-07T09:29:56Z</time>
      </trkpt>
      <trkpt lat="42.95491" lon="0.44209">
        <ele>1528.3505859375</ele>
        <time>2021-01-07T09:30:11Z</time>
      </trkpt>
      <trkpt lat="42.955" lon="0.44208">
        <ele>1522.7172851562</ele>
        <time>2021-01-07T09:30:44Z</time>
      </trkpt>
      <trkpt lat="42.9551" lon="0.44207">
        <ele>1515.3686523438</ele>
        <time>2021-01-07T09:31:11Z</time>
      </trkpt>
      <trkpt lat="42.95519" lon="0.44203">
        <ele>1511.7534179688</ele>
        <time>2021-01-07T09:31:38Z</time>
      </trkpt>
      <trkpt lat="42.95528" lon="0.442">
        <ele>1508.220703125</ele>
        <time>2021-01-07T09:31:58Z</time>
      </trkpt>
      <trkpt lat="42.95538" lon="0.44199">
        <ele>1501.3283691406</ele>
        <time>2021-01-07T09:32:14Z</time>
      </trkpt>
      <trkpt lat="42.95547" lon="0.44186">
        <ele>1498.4379882812</ele>
        <time>2021-01-07T09:37:35Z</time>
      </trkpt>
      <trkpt lat="42.95551" lon="0.44175">
        <ele>1493.9780273438</ele>
        <time>2021-01-07T09:38:07Z</time>
      </trkpt>
      <trkpt lat="42.95555" lon="0.44165">
        <ele>1487.1606445312</ele>
        <time>2021-01-07T09:38:23Z</time>
      </trkpt>
      <trkpt lat="42.95556" lon="0.44152">
        <ele>1480.6971435547</ele>
        <time>2021-01-07T09:38:40Z</time>
      </trkpt>
      <trkpt lat="42.95564" lon="0.44142">
        <ele>1473.3203125</ele>
        <time>2021-01-07T09:39:02Z</time>
      </trkpt>
      <trkpt lat="42.95574" lon="0.44144">
        <ele>1471.1225585938</ele>
        <time>2021-01-07T09:39:15Z</time>
      </trkpt>
      <trkpt lat="42.95582" lon="0.44149">
        <ele>1469.3358154297</ele>
        <time>2021-01-07T09:39:26Z</time>
      </trkpt>
      <trkpt lat="42.95592" lon="0.44152">
        <ele>1466.8637695312</ele>
        <time>2021-01-07T09:39:37Z</time>
      </trkpt>
      <trkpt lat="42.95601" lon="0.44152">
        <ele>1465.5925292969</ele>
        <time>2021-01-07T09:39:46Z</time>
      </trkpt>
      <trkpt lat="42.95612" lon="0.44151">
        <ele>1461.9224853516</ele>
        <time>2021-01-07T09:39:56Z</time>
      </trkpt>
      <trkpt lat="42.95622" lon="0.44149">
        <ele>1461.2086181641</ele>
        <time>2021-01-07T09:40:06Z</time>
      </trkpt>
      <trkpt lat="42.95631" lon="0.4415">
        <ele>1459.8883056641</ele>
        <time>2021-01-07T09:40:17Z</time>
      </trkpt>
      <trkpt lat="42.9564" lon="0.44147">
        <ele>1459.4509277344</ele>
        <time>2021-01-07T09:40:32Z</time>
      </trkpt>
      <trkpt lat="42.95651" lon="0.44144">
        <ele>1460.1864013672</ele>
        <time>2021-01-07T09:45:34Z</time>
      </trkpt>
      <trkpt lat="42.95663" lon="0.4414">
        <ele>1461.8212890625</ele>
        <time>2021-01-07T09:45:49Z</time>
      </trkpt>
      <trkpt lat="42.95675" lon="0.44135">
        <ele>1461.9213867188</ele>
        <time>2021-01-07T09:46:07Z</time>
      </trkpt>
      <trkpt lat="42.95687" lon="0.44134">
        <ele>1462.0777587891</ele>
        <time>2021-01-07T09:46:25Z</time>
      </trkpt>
      <trkpt lat="42.95698" lon="0.4413">
        <ele>1467.3826904297</ele>
        <time>2021-01-07T09:46:43Z</time>
      </trkpt>
      <trkpt lat="42.95707" lon="0.4413">
        <ele>1469.8737792969</ele>
        <time>2021-01-07T09:47:01Z</time>
      </trkpt>
      <trkpt lat="42.95716" lon="0.44123">
        <ele>1474.3840332031</ele>
        <time>2021-01-07T09:47:28Z</time>
      </trkpt>
      <trkpt lat="42.95723" lon="0.4411">
        <ele>1475.73828125</ele>
        <time>2021-01-07T09:47:52Z</time>
      </trkpt>
      <trkpt lat="42.95732" lon="0.44103">
        <ele>1476.4111328125</ele>
        <time>2021-01-07T09:48:16Z</time>
      </trkpt>
      <trkpt lat="42.95739" lon="0.44091">
        <ele>1476.5461425781</ele>
        <time>2021-01-07T09:48:40Z</time>
      </trkpt>
      <trkpt lat="42.95748" lon="0.44085">
        <ele>1480.7700195312</ele>
        <time>2021-01-07T09:49:34Z</time>
      </trkpt>
      <trkpt lat="42.9576" lon="0.44083">
        <ele>1483.7474365234</ele>
        <time>2021-01-07T09:49:52Z</time>
      </trkpt>
      <trkpt lat="42.95772" lon="0.44082">
        <ele>1482.2391357422</ele>
        <time>2021-01-07T09:50:07Z</time>
      </trkpt>
      <trkpt lat="42.95784" lon="0.44081">
        <ele>1483.1473388672</ele>
        <time>2021-01-07T09:50:25Z</time>
      </trkpt>
      <trkpt lat="42.95795" lon="0.44076">
        <ele>1480.9047851562</ele>
        <time>2021-01-07T09:50:43Z</time>
      </trkpt>
      <trkpt lat="42.95807" lon="0.44073">
        <ele>1484.5494384766</ele>
        <time>2021-01-07T09:51:01Z</time>
      </trkpt>
      <trkpt lat="42.95815" lon="0.4407">
        <ele>1484.0708007812</ele>
        <time>2021-01-07T09:51:19Z</time>
      </trkpt>
      <trkpt lat="42.95824" lon="0.44059">
        <ele>1487.6016845703</ele>
        <time>2021-01-07T09:51:37Z</time>
      </trkpt>
      <trkpt lat="42.95836" lon="0.44052">
        <ele>1484.8072509766</ele>
        <time>2021-01-07T09:51:55Z</time>
      </trkpt>
      <trkpt lat="42.95844" lon="0.44043">
        <ele>1483.4645996094</ele>
        <time>2021-01-07T09:52:07Z</time>
      </trkpt>
      <trkpt lat="42.95855" lon="0.44036">
        <ele>1480.61328125</ele>
        <time>2021-01-07T09:52:28Z</time>
      </trkpt>
      <trkpt lat="42.95864" lon="0.44026">
        <ele>1481.1569824219</ele>
        <time>2021-01-07T09:52:46Z</time>
      </trkpt>
      <trkpt lat="42.95875" lon="0.44027">
        <ele>1480.7161865234</ele>
        <time>2021-01-07T09:53:01Z</time>
      </trkpt>
      <trkpt lat="42.95885" lon="0.44023">
        <ele>1483.6638183594</ele>
        <time>2021-01-07T09:53:16Z</time>
      </trkpt>
      <trkpt lat="42.95894" lon="0.44018">
        <ele>1487.2762451172</ele>
        <time>2021-01-07T09:53:31Z</time>
      </trkpt>
      <trkpt lat="42.95904" lon="0.44018">
        <ele>1485.8690185547</ele>
        <time>2021-01-07T09:53:49Z</time>
      </trkpt>
      <trkpt lat="42.95914" lon="0.44017">
        <ele>1486.6231689453</ele>
        <time>2021-01-07T09:54:10Z</time>
      </trkpt>
      <trkpt lat="42.95922" lon="0.44011">
        <ele>1486.5333251953</ele>
        <time>2021-01-07T09:54:46Z</time>
      </trkpt>
      <trkpt lat="42.95927" lon="0.44">
        <ele>1486.4393310547</ele>
        <time>2021-01-07T09:55:01Z</time>
      </trkpt>
      <trkpt lat="42.95937" lon="0.43995">
        <ele>1490.2331542969</ele>
        <time>2021-01-07T09:55:28Z</time>
      </trkpt>
      <trkpt lat="42.95947" lon="0.43989">
        <ele>1487.6805419922</ele>
        <time>2021-01-07T09:55:49Z</time>
      </trkpt>
      <trkpt lat="42.95956" lon="0.43983">
        <ele>1486.1158447266</ele>
        <time>2021-01-07T09:56:04Z</time>
      </trkpt>
      <trkpt lat="42.95965" lon="0.43974">
        <ele>1486.4975585938</ele>
        <time>2021-01-07T09:56:25Z</time>
      </trkpt>
      <trkpt lat="42.95974" lon="0.43969">
        <ele>1486.3693847656</ele>
        <time>2021-01-07T09:56:43Z</time>
      </trkpt>
      <trkpt lat="42.95983" lon="0.43965">
        <ele>1486.4353027344</ele>
        <time>2021-01-07T09:57:04Z</time>
      </trkpt>
      <trkpt lat="42.95994" lon="0.43957">
        <ele>1486.9985351562</ele>
        <time>2021-01-07T09:57:22Z</time>
      </trkpt>
      <trkpt lat="42.96003" lon="0.43948">
        <ele>1486.6773681641</ele>
        <time>2021-01-07T09:57:40Z</time>
      </trkpt>
      <trkpt lat="42.9601" lon="0.43937">
        <ele>1487.9217529297</ele>
        <time>2021-01-07T09:58:01Z</time>
      </trkpt>
      <trkpt lat="42.96019" lon="0.43928">
        <ele>1487.7708740234</ele>
        <time>2021-01-07T09:58:22Z</time>
      </trkpt>
      <trkpt lat="42.96027" lon="0.4392">
        <ele>1487.1790771484</ele>
        <time>2021-01-07T09:58:52Z</time>
      </trkpt>
      <trkpt lat="42.96037" lon="0.43915">
        <ele>1489.96875</ele>
        <time>2021-01-07T09:59:19Z</time>
      </trkpt>
      <trkpt lat="42.96045" lon="0.43904">
        <ele>1488.8546142578</ele>
        <time>2021-01-07T10:00:04Z</time>
      </trkpt>
      <trkpt lat="42.96053" lon="0.43895">
        <ele>1494.2353515625</ele>
        <time>2021-01-07T10:00:25Z</time>
      </trkpt>
      <trkpt lat="42.96063" lon="0.43893">
        <ele>1493.490234375</ele>
        <time>2021-01-07T10:00:46Z</time>
      </trkpt>
      <trkpt lat="42.96073" lon="0.43888">
        <ele>1494.0780029297</ele>
        <time>2021-01-07T10:00:58Z</time>
      </trkpt>
      <trkpt lat="42.96083" lon="0.4388">
        <ele>1498.4375</ele>
        <time>2021-01-07T10:01:16Z</time>
      </trkpt>
      <trkpt lat="42.96092" lon="0.43871">
        <ele>1494.1473388672</ele>
        <time>2021-01-07T10:01:34Z</time>
      </trkpt>
      <trkpt lat="42.96102" lon="0.43862">
        <ele>1493.8988037109</ele>
        <time>2021-01-07T10:01:52Z</time>
      </trkpt>
      <trkpt lat="42.96111" lon="0.43858">
        <ele>1498.3120117188</ele>
        <time>2021-01-07T10:02:10Z</time>
      </trkpt>
      <trkpt lat="42.96121" lon="0.43853">
        <ele>1493.2165527344</ele>
        <time>2021-01-07T10:02:40Z</time>
      </trkpt>
      <trkpt lat="42.96131" lon="0.4385">
        <ele>1498.0146484375</ele>
        <time>2021-01-07T10:03:13Z</time>
      </trkpt>
      <trkpt lat="42.9614" lon="0.43842">
        <ele>1498.7465820312</ele>
        <time>2021-01-07T10:03:43Z</time>
      </trkpt>
      <trkpt lat="42.96149" lon="0.43837">
        <ele>1499.3586425781</ele>
        <time>2021-01-07T10:04:07Z</time>
      </trkpt>
      <trkpt lat="42.96152" lon="0.43821">
        <ele>1500.8811035156</ele>
        <time>2021-01-07T10:05:49Z</time>
      </trkpt>
      <trkpt lat="42.96163" lon="0.43819">
        <ele>1498.3620605469</ele>
        <time>2021-01-07T10:06:07Z</time>
      </trkpt>
      <trkpt lat="42.9617" lon="0.4381">
        <ele>1505.6147460938</ele>
        <time>2021-01-07T10:06:43Z</time>
      </trkpt>
      <trkpt lat="42.96174" lon="0.43796">
        <ele>1509.6274414062</ele>
        <time>2021-01-07T10:07:22Z</time>
      </trkpt>
      <trkpt lat="42.96183" lon="0.43788">
        <ele>1509.9809570312</ele>
        <time>2021-01-07T10:07:55Z</time>
      </trkpt>
      <trkpt lat="42.9619" lon="0.4378">
        <ele>1507.7084960938</ele>
        <time>2021-01-07T10:08:19Z</time>
      </trkpt>
      <trkpt lat="42.96194" lon="0.43767">
        <ele>1509.4189453125</ele>
        <time>2021-01-07T10:08:40Z</time>
      </trkpt>
      <trkpt lat="42.962" lon="0.43756">
        <ele>1507.0207519531</ele>
        <time>2021-01-07T10:08:55Z</time>
      </trkpt>
      <trkpt lat="42.96207" lon="0.43746">
        <ele>1505.2712402344</ele>
        <time>2021-01-07T10:09:13Z</time>
      </trkpt>
      <trkpt lat="42.96212" lon="0.43735">
        <ele>1506.931640625</ele>
        <time>2021-01-07T10:09:34Z</time>
      </trkpt>
      <trkpt lat="42.96217" lon="0.43722">
        <ele>1504.7578125</ele>
        <time>2021-01-07T10:10:01Z</time>
      </trkpt>
      <trkpt lat="42.96222" lon="0.4371">
        <ele>1502.23046875</ele>
        <time>2021-01-07T10:10:22Z</time>
      </trkpt>
      <trkpt lat="42.96228" lon="0.43696">
        <ele>1504.30078125</ele>
        <time>2021-01-07T10:10:43Z</time>
      </trkpt>
      <trkpt lat="42.96232" lon="0.43685">
        <ele>1502.7143554688</ele>
        <time>2021-01-07T10:11:04Z</time>
      </trkpt>
      <trkpt lat="42.96241" lon="0.43699">
        <ele>1511.9187011719</ele>
        <time>2021-01-07T10:14:46Z</time>
      </trkpt>
      <trkpt lat="42.96242" lon="0.43713">
        <ele>1512.1345214844</ele>
        <time>2021-01-07T10:15:43Z</time>
      </trkpt>
      <trkpt lat="42.96238" lon="0.43724">
        <ele>1515.05859375</ele>
        <time>2021-01-07T10:16:01Z</time>
      </trkpt>
      <trkpt lat="42.96242" lon="0.43737">
        <ele>1516.8278808594</ele>
        <time>2021-01-07T10:16:37Z</time>
      </trkpt>
      <trkpt lat="42.96237" lon="0.43754">
        <ele>1521.5932617188</ele>
        <time>2021-01-07T10:17:28Z</time>
      </trkpt>
      <trkpt lat="42.96242" lon="0.43764">
        <ele>1527.99609375</ele>
        <time>2021-01-07T10:18:25Z</time>
      </trkpt>
      <trkpt lat="42.96242" lon="0.43778">
        <ele>1532.99609375</ele>
        <time>2021-01-07T10:19:07Z</time>
      </trkpt>
      <trkpt lat="42.96252" lon="0.43776">
        <ele>1532.5864257812</ele>
        <time>2021-01-07T10:19:40Z</time>
      </trkpt>
      <trkpt lat="42.96261" lon="0.43768">
        <ele>1533.6845703125</ele>
        <time>2021-01-07T10:19:58Z</time>
      </trkpt>
      <trkpt lat="42.96266" lon="0.43753">
        <ele>1532.8862304688</ele>
        <time>2021-01-07T10:20:19Z</time>
      </trkpt>
      <trkpt lat="42.96269" lon="0.4374">
        <ele>1532.9047851562</ele>
        <time>2021-01-07T10:20:37Z</time>
      </trkpt>
      <trkpt lat="42.96275" lon="0.43729">
        <ele>1531.2814941406</ele>
        <time>2021-01-07T10:20:55Z</time>
      </trkpt>
      <trkpt lat="42.96271" lon="0.43711">
        <ele>1530.1513671875</ele>
        <time>2021-01-07T10:22:47Z</time>
      </trkpt>
      <trkpt lat="42.9626" lon="0.43703">
        <ele>1526.423828125</ele>
        <time>2021-01-07T10:23:58Z</time>
      </trkpt>
      <trkpt lat="42.96271" lon="0.43714">
        <ele>1529.5263671875</ele>
        <time>2021-01-07T10:29:23Z</time>
      </trkpt>
      <trkpt lat="42.96281" lon="0.43715">
        <ele>1533.1040039062</ele>
        <time>2021-01-07T10:30:23Z</time>
      </trkpt>
      <trkpt lat="42.96287" lon="0.43702">
        <ele>1534.4482421875</ele>
        <time>2021-01-07T10:30:38Z</time>
      </trkpt>
      <trkpt lat="42.96293" lon="0.4369">
        <ele>1534.5327148438</ele>
        <time>2021-01-07T10:30:53Z</time>
      </trkpt>
      <trkpt lat="42.963" lon="0.43677">
        <ele>1535.2744140625</ele>
        <time>2021-01-07T10:31:14Z</time>
      </trkpt>
      <trkpt lat="42.96305" lon="0.43666">
        <ele>1536.5764160156</ele>
        <time>2021-01-07T10:31:32Z</time>
      </trkpt>
      <trkpt lat="42.96311" lon="0.43651">
        <ele>1537.8229980469</ele>
        <time>2021-01-07T10:32:05Z</time>
      </trkpt>
      <trkpt lat="42.96315" lon="0.43638">
        <ele>1538.2592773438</ele>
        <time>2021-01-07T10:32:23Z</time>
      </trkpt>
      <trkpt lat="42.9632" lon="0.43626">
        <ele>1538.865234375</ele>
        <time>2021-01-07T10:32:35Z</time>
      </trkpt>
      <trkpt lat="42.96324" lon="0.43613">
        <ele>1539.49609375</ele>
        <time>2021-01-07T10:32:47Z</time>
      </trkpt>
      <trkpt lat="42.96327" lon="0.43598">
        <ele>1540.9243164062</ele>
        <time>2021-01-07T10:33:05Z</time>
      </trkpt>
      <trkpt lat="42.96332" lon="0.43582">
        <ele>1539.4360351562</ele>
        <time>2021-01-07T10:33:23Z</time>
      </trkpt>
      <trkpt lat="42.96337" lon="0.43569">
        <ele>1539.8427734375</ele>
        <time>2021-01-07T10:33:41Z</time>
      </trkpt>
      <trkpt lat="42.96344" lon="0.43555">
        <ele>1541.1435546875</ele>
        <time>2021-01-07T10:33:59Z</time>
      </trkpt>
      <trkpt lat="42.9635" lon="0.43541">
        <ele>1542.4089355469</ele>
        <time>2021-01-07T10:34:17Z</time>
      </trkpt>
      <trkpt lat="42.96353" lon="0.43526">
        <ele>1542.2333984375</ele>
        <time>2021-01-07T10:34:32Z</time>
      </trkpt>
      <trkpt lat="42.96358" lon="0.43515">
        <ele>1543.0563964844</ele>
        <time>2021-01-07T10:34:44Z</time>
      </trkpt>
      <trkpt lat="42.96365" lon="0.43503">
        <ele>1542.2866210938</ele>
        <time>2021-01-07T10:34:59Z</time>
      </trkpt>
      <trkpt lat="42.96371" lon="0.43493">
        <ele>1543.4038085938</ele>
        <time>2021-01-07T10:35:11Z</time>
      </trkpt>
      <trkpt lat="42.96379" lon="0.4348">
        <ele>1543.2565917969</ele>
        <time>2021-01-07T10:35:29Z</time>
      </trkpt>
      <trkpt lat="42.96387" lon="0.43468">
        <ele>1543.455078125</ele>
        <time>2021-01-07T10:35:44Z</time>
      </trkpt>
      <trkpt lat="42.96393" lon="0.43454">
        <ele>1542.8977050781</ele>
        <time>2021-01-07T10:36:02Z</time>
      </trkpt>
      <trkpt lat="42.96399" lon="0.43443">
        <ele>1542.8859863281</ele>
        <time>2021-01-07T10:36:17Z</time>
      </trkpt>
      <trkpt lat="42.96406" lon="0.43429">
        <ele>1545.5334472656</ele>
        <time>2021-01-07T10:36:35Z</time>
      </trkpt>
      <trkpt lat="42.96412" lon="0.43419">
        <ele>1546.455078125</ele>
        <time>2021-01-07T10:36:53Z</time>
      </trkpt>
      <trkpt lat="42.96416" lon="0.43406">
        <ele>1546.8530273438</ele>
        <time>2021-01-07T10:37:11Z</time>
      </trkpt>
      <trkpt lat="42.96421" lon="0.43391">
        <ele>1547.2744140625</ele>
        <time>2021-01-07T10:39:26Z</time>
      </trkpt>
      <trkpt lat="42.96428" lon="0.43377">
        <ele>1544.9206542969</ele>
        <time>2021-01-07T10:39:38Z</time>
      </trkpt>
      <trkpt lat="42.96437" lon="0.43361">
        <ele>1543.189453125</ele>
        <time>2021-01-07T10:39:50Z</time>
      </trkpt>
      <trkpt lat="42.96447" lon="0.43351">
        <ele>1541.6118164062</ele>
        <time>2021-01-07T10:40:02Z</time>
      </trkpt>
      <trkpt lat="42.96455" lon="0.43343">
        <ele>1542.8720703125</ele>
        <time>2021-01-07T10:40:14Z</time>
      </trkpt>
      <trkpt lat="42.96464" lon="0.43335">
        <ele>1544.8974609375</ele>
        <time>2021-01-07T10:40:26Z</time>
      </trkpt>
      <trkpt lat="42.9647" lon="0.43325">
        <ele>1547.2282714844</ele>
        <time>2021-01-07T10:40:59Z</time>
      </trkpt>
      <trkpt lat="42.96475" lon="0.43315">
        <ele>1550.1984863281</ele>
        <time>2021-01-07T10:41:38Z</time>
      </trkpt>
      <trkpt lat="42.96483" lon="0.43303">
        <ele>1552.4877929688</ele>
        <time>2021-01-07T10:42:05Z</time>
      </trkpt>
      <trkpt lat="42.96487" lon="0.4329">
        <ele>1553.0114746094</ele>
        <time>2021-01-07T10:42:29Z</time>
      </trkpt>
      <trkpt lat="42.96496" lon="0.43293">
        <ele>1556.8779296875</ele>
        <time>2021-01-07T10:43:17Z</time>
      </trkpt>
      <trkpt lat="42.96509" lon="0.43294">
        <ele>1563.0493164062</ele>
        <time>2021-01-07T10:44:20Z</time>
      </trkpt>
      <trkpt lat="42.96519" lon="0.43296">
        <ele>1566.4057617188</ele>
        <time>2021-01-07T10:44:56Z</time>
      </trkpt>
      <trkpt lat="42.96526" lon="0.43288">
        <ele>1571.7182617188</ele>
        <time>2021-01-07T10:46:08Z</time>
      </trkpt>
      <trkpt lat="42.96538" lon="0.43287">
        <ele>1581.3364257812</ele>
        <time>2021-01-07T10:47:44Z</time>
      </trkpt>
      <trkpt lat="42.96548" lon="0.43286">
        <ele>1582.2800292969</ele>
        <time>2021-01-07T10:48:32Z</time>
      </trkpt>
      <trkpt lat="42.96551" lon="0.43274">
        <ele>1587.5461425781</ele>
        <time>2021-01-07T10:48:53Z</time>
      </trkpt>
      <trkpt lat="42.9656" lon="0.43269">
        <ele>1592.4580078125</ele>
        <time>2021-01-07T10:50:02Z</time>
      </trkpt>
      <trkpt lat="42.96562" lon="0.43256">
        <ele>1595.1520996094</ele>
        <time>2021-01-07T10:50:26Z</time>
      </trkpt>
      <trkpt lat="42.96571" lon="0.43253">
        <ele>1600.064453125</ele>
        <time>2021-01-07T10:51:20Z</time>
      </trkpt>
      <trkpt lat="42.96574" lon="0.4324">
        <ele>1604.7431640625</ele>
        <time>2021-01-07T10:52:14Z</time>
      </trkpt>
      <trkpt lat="42.96577" lon="0.43226">
        <ele>1606.7729492188</ele>
        <time>2021-01-07T10:52:59Z</time>
      </trkpt>
      <trkpt lat="42.96579" lon="0.43212">
        <ele>1610.5729980469</ele>
        <time>2021-01-07T10:53:26Z</time>
      </trkpt>
      <trkpt lat="42.96579" lon="0.43196">
        <ele>1614.9375</ele>
        <time>2021-01-07T10:53:47Z</time>
      </trkpt>
      <trkpt lat="42.96584" lon="0.43185">
        <ele>1617.126953125</ele>
        <time>2021-01-07T10:54:11Z</time>
      </trkpt>
      <trkpt lat="42.96587" lon="0.43199">
        <ele>1616.9584960938</ele>
        <time>2021-01-07T10:55:32Z</time>
      </trkpt>
      <trkpt lat="42.96586" lon="0.43185">
        <ele>1616.57421875</ele>
        <time>2021-01-07T10:55:59Z</time>
      </trkpt>
      <trkpt lat="42.96577" lon="0.43194">
        <ele>1611.7778320312</ele>
        <time>2021-01-07T11:46:37Z</time>
      </trkpt>
      <trkpt lat="42.96575" lon="0.43212">
        <ele>1610.7145996094</ele>
        <time>2021-01-07T11:46:49Z</time>
      </trkpt>
      <trkpt lat="42.96574" lon="0.43228">
        <ele>1607.9699707031</ele>
        <time>2021-01-07T11:47:01Z</time>
      </trkpt>
      <trkpt lat="42.96571" lon="0.43244">
        <ele>1604.2900390625</ele>
        <time>2021-01-07T11:47:16Z</time>
      </trkpt>
      <trkpt lat="42.96564" lon="0.43254">
        <ele>1598.25390625</ele>
        <time>2021-01-07T11:47:43Z</time>
      </trkpt>
      <trkpt lat="42.96557" lon="0.43266">
        <ele>1595.1491699219</ele>
        <time>2021-01-07T11:48:13Z</time>
      </trkpt>
      <trkpt lat="42.96548" lon="0.43272">
        <ele>1587.8706054688</ele>
        <time>2021-01-07T11:48:46Z</time>
      </trkpt>
      <trkpt lat="42.96545" lon="0.43285">
        <ele>1585.8676757812</ele>
        <time>2021-01-07T11:49:01Z</time>
      </trkpt>
      <trkpt lat="42.96537" lon="0.43272">
        <ele>1582.4692382812</ele>
        <time>2021-01-07T11:49:16Z</time>
      </trkpt>
      <trkpt lat="42.96537" lon="0.43285">
        <ele>1582.6865234375</ele>
        <time>2021-01-07T11:49:25Z</time>
      </trkpt>
      <trkpt lat="42.96539" lon="0.43298">
        <ele>1580.6525878906</ele>
        <time>2021-01-07T11:49:37Z</time>
      </trkpt>
      <trkpt lat="42.96532" lon="0.43289">
        <ele>1576.5942382812</ele>
        <time>2021-01-07T11:49:49Z</time>
      </trkpt>
      <trkpt lat="42.96519" lon="0.4329">
        <ele>1567.3898925781</ele>
        <time>2021-01-07T11:50:25Z</time>
      </trkpt>
      <trkpt lat="42.96508" lon="0.43292">
        <ele>1563.3310546875</ele>
        <time>2021-01-07T11:50:40Z</time>
      </trkpt>
      <trkpt lat="42.96496" lon="0.43302">
        <ele>1561.0517578125</ele>
        <time>2021-01-07T11:50:55Z</time>
      </trkpt>
      <trkpt lat="42.96489" lon="0.43286">
        <ele>1551.9790039062</ele>
        <time>2021-01-07T11:51:10Z</time>
      </trkpt>
      <trkpt lat="42.9648" lon="0.43302">
        <ele>1551.7836914062</ele>
        <time>2021-01-07T11:51:34Z</time>
      </trkpt>
      <trkpt lat="42.96472" lon="0.43315">
        <ele>1548.9951171875</ele>
        <time>2021-01-07T11:51:47Z</time>
      </trkpt>
      <trkpt lat="42.96465" lon="0.4333">
        <ele>1544.3801269531</ele>
        <time>2021-01-07T11:52:01Z</time>
      </trkpt>
      <trkpt lat="42.96455" lon="0.43342">
        <ele>1542.056640625</ele>
        <time>2021-01-07T11:52:13Z</time>
      </trkpt>
      <trkpt lat="42.96444" lon="0.43354">
        <ele>1542.1767578125</ele>
        <time>2021-01-07T11:52:25Z</time>
      </trkpt>
      <trkpt lat="42.96436" lon="0.43366">
        <ele>1543.2465820312</ele>
        <time>2021-01-07T11:52:37Z</time>
      </trkpt>
      <trkpt lat="42.96429" lon="0.43378">
        <ele>1546.3154296875</ele>
        <time>2021-01-07T11:52:49Z</time>
      </trkpt>
      <trkpt lat="42.96423" lon="0.4339">
        <ele>1548.9301757812</ele>
        <time>2021-01-07T11:53:01Z</time>
      </trkpt>
      <trkpt lat="42.96418" lon="0.43402">
        <ele>1549.3627929688</ele>
        <time>2021-01-07T11:53:13Z</time>
      </trkpt>
      <trkpt lat="42.96411" lon="0.43415">
        <ele>1545.8149414062</ele>
        <time>2021-01-07T11:58:28Z</time>
      </trkpt>
      <trkpt lat="42.96403" lon="0.4343">
        <ele>1545.5974121094</ele>
        <time>2021-01-07T11:58:40Z</time>
      </trkpt>
      <trkpt lat="42.96395" lon="0.43446">
        <ele>1545.9365234375</ele>
        <time>2021-01-07T11:58:52Z</time>
      </trkpt>
      <trkpt lat="42.96386" lon="0.43462">
        <ele>1544.765625</ele>
        <time>2021-01-07T11:59:04Z</time>
      </trkpt>
      <trkpt lat="42.96378" lon="0.43479">
        <ele>1546.2797851562</ele>
        <time>2021-01-07T11:59:16Z</time>
      </trkpt>
      <trkpt lat="42.9637" lon="0.43494">
        <ele>1545.0219726562</ele>
        <time>2021-01-07T11:59:28Z</time>
      </trkpt>
      <trkpt lat="42.96362" lon="0.43508">
        <ele>1544.9135742188</ele>
        <time>2021-01-07T11:59:40Z</time>
      </trkpt>
      <trkpt lat="42.96355" lon="0.43524">
        <ele>1543.7475585938</ele>
        <time>2021-01-07T11:59:52Z</time>
      </trkpt>
      <trkpt lat="42.96348" lon="0.43541">
        <ele>1545.0024414062</ele>
        <time>2021-01-07T12:00:04Z</time>
      </trkpt>
      <trkpt lat="42.96342" lon="0.43555">
        <ele>1544.9345703125</ele>
        <time>2021-01-07T12:00:16Z</time>
      </trkpt>
      <trkpt lat="42.96335" lon="0.43568">
        <ele>1541.3515625</ele>
        <time>2021-01-07T12:00:28Z</time>
      </trkpt>
      <trkpt lat="42.96328" lon="0.43584">
        <ele>1540.0485839844</ele>
        <time>2021-01-07T12:00:40Z</time>
      </trkpt>
      <trkpt lat="42.96325" lon="0.43601">
        <ele>1541.041015625</ele>
        <time>2021-01-07T12:00:52Z</time>
      </trkpt>
      <trkpt lat="42.96321" lon="0.43618">
        <ele>1540.5366210938</ele>
        <time>2021-01-07T12:01:04Z</time>
      </trkpt>
      <trkpt lat="42.96314" lon="0.43635">
        <ele>1541.1337890625</ele>
        <time>2021-01-07T12:01:16Z</time>
      </trkpt>
      <trkpt lat="42.96308" lon="0.4365">
        <ele>1538.8168945312</ele>
        <time>2021-01-07T12:01:28Z</time>
      </trkpt>
      <trkpt lat="42.96302" lon="0.43665">
        <ele>1538.599609375</ele>
        <time>2021-01-07T12:01:37Z</time>
      </trkpt>
      <trkpt lat="42.96295" lon="0.43679">
        <ele>1537.96484375</ele>
        <time>2021-01-07T12:01:46Z</time>
      </trkpt>
      <trkpt lat="42.96288" lon="0.43693">
        <ele>1536.9802246094</ele>
        <time>2021-01-07T12:01:58Z</time>
      </trkpt>
      <trkpt lat="42.96284" lon="0.43705">
        <ele>1535.9482421875</ele>
        <time>2021-01-07T12:02:05Z</time>
      </trkpt>
      <trkpt lat="42.9628" lon="0.43717">
        <ele>1537.7927246094</ele>
        <time>2021-01-07T12:02:14Z</time>
      </trkpt>
      <trkpt lat="42.96272" lon="0.43724">
        <ele>1536.1586914062</ele>
        <time>2021-01-07T12:02:23Z</time>
      </trkpt>
      <trkpt lat="42.96269" lon="0.43736">
        <ele>1535.0502929688</ele>
        <time>2021-01-07T12:02:32Z</time>
      </trkpt>
      <trkpt lat="42.96265" lon="0.43749">
        <ele>1535.8859863281</ele>
        <time>2021-01-07T12:02:43Z</time>
      </trkpt>
      <trkpt lat="42.96264" lon="0.43761">
        <ele>1536.2045898438</ele>
        <time>2021-01-07T12:02:53Z</time>
      </trkpt>
      <trkpt lat="42.96259" lon="0.43772">
        <ele>1535.6520996094</ele>
        <time>2021-01-07T12:03:01Z</time>
      </trkpt>
      <trkpt lat="42.9625" lon="0.43776">
        <ele>1533.890625</ele>
        <time>2021-01-07T12:03:11Z</time>
      </trkpt>
      <trkpt lat="42.96241" lon="0.43773">
        <ele>1533.0776367188</ele>
        <time>2021-01-07T12:05:57Z</time>
      </trkpt>
      <trkpt lat="42.96241" lon="0.4376">
        <ele>1532.638671875</ele>
        <time>2021-01-07T12:06:04Z</time>
      </trkpt>
      <trkpt lat="42.96241" lon="0.43747">
        <ele>1529.8845214844</ele>
        <time>2021-01-07T12:06:14Z</time>
      </trkpt>
      <trkpt lat="42.96236" lon="0.43734">
        <ele>1521.025390625</ele>
        <time>2021-01-07T12:06:43Z</time>
      </trkpt>
      <trkpt lat="42.96237" lon="0.43721">
        <ele>1516.6923828125</ele>
        <time>2021-01-07T12:06:55Z</time>
      </trkpt>
      <trkpt lat="42.96238" lon="0.43708">
        <ele>1513.2768554688</ele>
        <time>2021-01-07T12:07:10Z</time>
      </trkpt>
      <trkpt lat="42.96235" lon="0.43696">
        <ele>1512.3083496094</ele>
        <time>2021-01-07T12:07:25Z</time>
      </trkpt>
      <trkpt lat="42.96231" lon="0.43685">
        <ele>1506.3994140625</ele>
        <time>2021-01-07T12:07:52Z</time>
      </trkpt>
      <trkpt lat="42.96226" lon="0.43702">
        <ele>1506.0798339844</ele>
        <time>2021-01-07T12:08:42Z</time>
      </trkpt>
      <trkpt lat="42.96222" lon="0.43713">
        <ele>1507.3159179688</ele>
        <time>2021-01-07T12:09:29Z</time>
      </trkpt>
      <trkpt lat="42.96218" lon="0.43724">
        <ele>1507.3740234375</ele>
        <time>2021-01-07T12:09:40Z</time>
      </trkpt>
      <trkpt lat="42.96214" lon="0.43735">
        <ele>1500.083984375</ele>
        <time>2021-01-07T12:09:52Z</time>
      </trkpt>
      <trkpt lat="42.96207" lon="0.43745">
        <ele>1501.9846191406</ele>
        <time>2021-01-07T12:10:01Z</time>
      </trkpt>
      <trkpt lat="42.96201" lon="0.43754">
        <ele>1499.9228515625</ele>
        <time>2021-01-07T12:10:10Z</time>
      </trkpt>
      <trkpt lat="42.96195" lon="0.43764">
        <ele>1500.1335449219</ele>
        <time>2021-01-07T12:10:21Z</time>
      </trkpt>
      <trkpt lat="42.96192" lon="0.43778">
        <ele>1501.984375</ele>
        <time>2021-01-07T12:10:32Z</time>
      </trkpt>
      <trkpt lat="42.96186" lon="0.43787">
        <ele>1501.61328125</ele>
        <time>2021-01-07T12:10:42Z</time>
      </trkpt>
      <trkpt lat="42.96178" lon="0.43794">
        <ele>1496.7348632812</ele>
        <time>2021-01-07T12:10:55Z</time>
      </trkpt>
      <trkpt lat="42.96171" lon="0.43803">
        <ele>1497.9436035156</ele>
        <time>2021-01-07T12:11:08Z</time>
      </trkpt>
      <trkpt lat="42.96164" lon="0.43812">
        <ele>1496.3878173828</ele>
        <time>2021-01-07T12:11:20Z</time>
      </trkpt>
      <trkpt lat="42.96156" lon="0.43819">
        <ele>1492.6018066406</ele>
        <time>2021-01-07T12:11:59Z</time>
      </trkpt>
      <trkpt lat="42.9615" lon="0.4383">
        <ele>1489.8365478516</ele>
        <time>2021-01-07T12:12:12Z</time>
      </trkpt>
      <trkpt lat="42.96147" lon="0.43842">
        <ele>1489.7222900391</ele>
        <time>2021-01-07T12:12:24Z</time>
      </trkpt>
      <trkpt lat="42.96138" lon="0.43846">
        <ele>1488.4862060547</ele>
        <time>2021-01-07T12:12:36Z</time>
      </trkpt>
      <trkpt lat="42.96129" lon="0.43851">
        <ele>1486.02734375</ele>
        <time>2021-01-07T12:12:47Z</time>
      </trkpt>
      <trkpt lat="42.96119" lon="0.4385">
        <ele>1484.5180664062</ele>
        <time>2021-01-07T12:13:00Z</time>
      </trkpt>
      <trkpt lat="42.96111" lon="0.43857">
        <ele>1489.9180908203</ele>
        <time>2021-01-07T12:13:11Z</time>
      </trkpt>
      <trkpt lat="42.96103" lon="0.43863">
        <ele>1489.5167236328</ele>
        <time>2021-01-07T12:13:22Z</time>
      </trkpt>
      <trkpt lat="42.96094" lon="0.43869">
        <ele>1490.0853271484</ele>
        <time>2021-01-07T12:13:32Z</time>
      </trkpt>
      <trkpt lat="42.96086" lon="0.43875">
        <ele>1489.6326904297</ele>
        <time>2021-01-07T12:13:42Z</time>
      </trkpt>
      <trkpt lat="42.96076" lon="0.4388">
        <ele>1491.2220458984</ele>
        <time>2021-01-07T12:13:53Z</time>
      </trkpt>
      <trkpt lat="42.96068" lon="0.43886">
        <ele>1489.5726318359</ele>
        <time>2021-01-07T12:14:05Z</time>
      </trkpt>
      <trkpt lat="42.96056" lon="0.43895">
        <ele>1487.3521728516</ele>
        <time>2021-01-07T12:14:21Z</time>
      </trkpt>
      <trkpt lat="42.96047" lon="0.43897">
        <ele>1494.1614990234</ele>
        <time>2021-01-07T12:14:29Z</time>
      </trkpt>
      <trkpt lat="42.96038" lon="0.43903">
        <ele>1491.0981445312</ele>
        <time>2021-01-07T12:14:39Z</time>
      </trkpt>
      <trkpt lat="42.96032" lon="0.43913">
        <ele>1490.017578125</ele>
        <time>2021-01-07T12:14:53Z</time>
      </trkpt>
      <trkpt lat="42.96023" lon="0.43917">
        <ele>1487.9815673828</ele>
        <time>2021-01-07T12:15:05Z</time>
      </trkpt>
      <trkpt lat="42.96015" lon="0.43924">
        <ele>1487.6472167969</ele>
        <time>2021-01-07T12:15:14Z</time>
      </trkpt>
      <trkpt lat="42.96009" lon="0.43934">
        <ele>1484.9127197266</ele>
        <time>2021-01-07T12:15:25Z</time>
      </trkpt>
      <trkpt lat="42.96002" lon="0.43943">
        <ele>1488.6253662109</ele>
        <time>2021-01-07T12:15:44Z</time>
      </trkpt>
      <trkpt lat="42.95994" lon="0.4395">
        <ele>1487.2938232422</ele>
        <time>2021-01-07T12:16:06Z</time>
      </trkpt>
      <trkpt lat="42.95986" lon="0.43954">
        <ele>1486.8083496094</ele>
        <time>2021-01-07T12:18:25Z</time>
      </trkpt>
      <trkpt lat="42.95979" lon="0.43964">
        <ele>1483.0635986328</ele>
        <time>2021-01-07T12:20:22Z</time>
      </trkpt>
      <trkpt lat="42.9597" lon="0.4397">
        <ele>1482.9696044922</ele>
        <time>2021-01-07T12:20:31Z</time>
      </trkpt>
      <trkpt lat="42.9596" lon="0.43974">
        <ele>1483.7142333984</ele>
        <time>2021-01-07T12:20:43Z</time>
      </trkpt>
      <trkpt lat="42.95952" lon="0.43981">
        <ele>1487.1881103516</ele>
        <time>2021-01-07T12:20:50Z</time>
      </trkpt>
      <trkpt lat="42.95943" lon="0.43987">
        <ele>1491.1987304688</ele>
        <time>2021-01-07T12:21:01Z</time>
      </trkpt>
      <trkpt lat="42.95936" lon="0.43995">
        <ele>1490.4429931641</ele>
        <time>2021-01-07T12:21:13Z</time>
      </trkpt>
      <trkpt lat="42.95927" lon="0.43997">
        <ele>1490.1302490234</ele>
        <time>2021-01-07T12:21:26Z</time>
      </trkpt>
      <trkpt lat="42.95919" lon="0.44005">
        <ele>1488.7720947266</ele>
        <time>2021-01-07T12:21:37Z</time>
      </trkpt>
      <trkpt lat="42.95912" lon="0.44014">
        <ele>1486.3521728516</ele>
        <time>2021-01-07T12:21:52Z</time>
      </trkpt>
      <trkpt lat="42.95902" lon="0.44015">
        <ele>1487.94921875</ele>
        <time>2021-01-07T12:22:08Z</time>
      </trkpt>
      <trkpt lat="42.95892" lon="0.44014">
        <ele>1486.9954833984</ele>
        <time>2021-01-07T12:22:24Z</time>
      </trkpt>
      <trkpt lat="42.95882" lon="0.44015">
        <ele>1490.2589111328</ele>
        <time>2021-01-07T12:22:33Z</time>
      </trkpt>
      <trkpt lat="42.95873" lon="0.44019">
        <ele>1490.6064453125</ele>
        <time>2021-01-07T12:22:42Z</time>
      </trkpt>
      <trkpt lat="42.95863" lon="0.44018">
        <ele>1486.9456787109</ele>
        <time>2021-01-07T12:23:12Z</time>
      </trkpt>
      <trkpt lat="42.95853" lon="0.44019">
        <ele>1489.6219482422</ele>
        <time>2021-01-07T12:23:19Z</time>
      </trkpt>
      <trkpt lat="42.95849" lon="0.44031">
        <ele>1485.9912109375</ele>
        <time>2021-01-07T12:23:33Z</time>
      </trkpt>
      <trkpt lat="42.95842" lon="0.4404">
        <ele>1488.2978515625</ele>
        <time>2021-01-07T12:23:48Z</time>
      </trkpt>
      <trkpt lat="42.95836" lon="0.44049">
        <ele>1484.1036376953</ele>
        <time>2021-01-07T12:24:01Z</time>
      </trkpt>
      <trkpt lat="42.95828" lon="0.44055">
        <ele>1483.3767089844</ele>
        <time>2021-01-07T12:24:11Z</time>
      </trkpt>
      <trkpt lat="42.95817" lon="0.44066">
        <ele>1486.3071289062</ele>
        <time>2021-01-07T12:25:17Z</time>
      </trkpt>
      <trkpt lat="42.95809" lon="0.44074">
        <ele>1481.8811035156</ele>
        <time>2021-01-07T12:29:27Z</time>
      </trkpt>
      <trkpt lat="42.95796" lon="0.44076">
        <ele>1482.3083496094</ele>
        <time>2021-01-07T12:29:48Z</time>
      </trkpt>
      <trkpt lat="42.95787" lon="0.44081">
        <ele>1484.7862548828</ele>
        <time>2021-01-07T12:30:00Z</time>
      </trkpt>
      <trkpt lat="42.95777" lon="0.44083">
        <ele>1484.3642578125</ele>
        <time>2021-01-07T12:30:12Z</time>
      </trkpt>
      <trkpt lat="42.95766" lon="0.44082">
        <ele>1480.8305664062</ele>
        <time>2021-01-07T12:30:29Z</time>
      </trkpt>
      <trkpt lat="42.95755" lon="0.44084">
        <ele>1481.7169189453</ele>
        <time>2021-01-07T12:30:39Z</time>
      </trkpt>
      <trkpt lat="42.95742" lon="0.44089">
        <ele>1479.0297851562</ele>
        <time>2021-01-07T12:30:57Z</time>
      </trkpt>
      <trkpt lat="42.95733" lon="0.44098">
        <ele>1472.1807861328</ele>
        <time>2021-01-07T12:31:45Z</time>
      </trkpt>
      <trkpt lat="42.95723" lon="0.44105">
        <ele>1471.3254394531</ele>
        <time>2021-01-07T12:32:03Z</time>
      </trkpt>
      <trkpt lat="42.95715" lon="0.44121">
        <ele>1472.4295654297</ele>
        <time>2021-01-07T12:32:18Z</time>
      </trkpt>
      <trkpt lat="42.95705" lon="0.44126">
        <ele>1470.4447021484</ele>
        <time>2021-01-07T12:32:42Z</time>
      </trkpt>
      <trkpt lat="42.95694" lon="0.44127">
        <ele>1466.8720703125</ele>
        <time>2021-01-07T12:33:06Z</time>
      </trkpt>
      <trkpt lat="42.95684" lon="0.44129">
        <ele>1460.9942626953</ele>
        <time>2021-01-07T12:33:24Z</time>
      </trkpt>
      <trkpt lat="42.95674" lon="0.44132">
        <ele>1457.9371337891</ele>
        <time>2021-01-07T12:33:39Z</time>
      </trkpt>
      <trkpt lat="42.95663" lon="0.44137">
        <ele>1458.3276367188</ele>
        <time>2021-01-07T12:33:51Z</time>
      </trkpt>
      <trkpt lat="42.95651" lon="0.44141">
        <ele>1457.0181884766</ele>
        <time>2021-01-07T12:34:03Z</time>
      </trkpt>
      <trkpt lat="42.9564" lon="0.44146">
        <ele>1456.7952880859</ele>
        <time>2021-01-07T12:34:15Z</time>
      </trkpt>
      <trkpt lat="42.95627" lon="0.44147">
        <ele>1455.6951904297</ele>
        <time>2021-01-07T12:34:33Z</time>
      </trkpt>
      <trkpt lat="42.95615" lon="0.44147">
        <ele>1457.8508300781</ele>
        <time>2021-01-07T12:34:51Z</time>
      </trkpt>
      <trkpt lat="42.95607" lon="0.44153">
        <ele>1459.2556152344</ele>
        <time>2021-01-07T12:35:24Z</time>
      </trkpt>
      <trkpt lat="42.95596" lon="0.44151">
        <ele>1465.0185546875</ele>
        <time>2021-01-07T12:40:29Z</time>
      </trkpt>
      <trkpt lat="42.95586" lon="0.4415">
        <ele>1466.9727783203</ele>
        <time>2021-01-07T12:40:38Z</time>
      </trkpt>
      <trkpt lat="42.95578" lon="0.44146">
        <ele>1466.4819335938</ele>
        <time>2021-01-07T12:40:53Z</time>
      </trkpt>
      <trkpt lat="42.95569" lon="0.4414">
        <ele>1468.1781005859</ele>
        <time>2021-01-07T12:41:20Z</time>
      </trkpt>
      <trkpt lat="42.95561" lon="0.44135">
        <ele>1470.8381347656</ele>
        <time>2021-01-07T12:41:39Z</time>
      </trkpt>
      <trkpt lat="42.95553" lon="0.44147">
        <ele>1473.8382568359</ele>
        <time>2021-01-07T12:42:11Z</time>
      </trkpt>
      <trkpt lat="42.9555" lon="0.44159">
        <ele>1479.6645507812</ele>
        <time>2021-01-07T12:42:41Z</time>
      </trkpt>
      <trkpt lat="42.95547" lon="0.44177">
        <ele>1487.0749511719</ele>
        <time>2021-01-07T12:43:55Z</time>
      </trkpt>
      <trkpt lat="42.95543" lon="0.44189">
        <ele>1490.236328125</ele>
        <time>2021-01-07T12:44:47Z</time>
      </trkpt>
      <trkpt lat="42.95536" lon="0.44198">
        <ele>1493.4138183594</ele>
        <time>2021-01-07T12:45:30Z</time>
      </trkpt>
      <trkpt lat="42.95523" lon="0.44197">
        <ele>1496.2391357422</ele>
        <time>2021-01-07T12:46:40Z</time>
      </trkpt>
      <trkpt lat="42.95513" lon="0.44196">
        <ele>1498.89453125</ele>
        <time>2021-01-07T12:47:18Z</time>
      </trkpt>
      <trkpt lat="42.95504" lon="0.44203">
        <ele>1501.7221679688</ele>
        <time>2021-01-07T12:47:38Z</time>
      </trkpt>
      <trkpt lat="42.95489" lon="0.44202">
        <ele>1506.7563476562</ele>
        <time>2021-01-07T12:49:11Z</time>
      </trkpt>
      <trkpt lat="42.95498" lon="0.44202">
        <ele>1508.9116210938</ele>
        <time>2021-01-07T12:49:26Z</time>
      </trkpt>
      <trkpt lat="42.95486" lon="0.44207">
        <ele>1517.1179199219</ele>
        <time>2021-01-07T12:50:46Z</time>
      </trkpt>
      <trkpt lat="42.95477" lon="0.44207">
        <ele>1523.46875</ele>
        <time>2021-01-07T12:51:21Z</time>
      </trkpt>
      <trkpt lat="42.95467" lon="0.44207">
        <ele>1525.8588867188</ele>
        <time>2021-01-07T12:51:57Z</time>
      </trkpt>
      <trkpt lat="42.95458" lon="0.44211">
        <ele>1533.5668945312</ele>
        <time>2021-01-07T12:52:23Z</time>
      </trkpt>
      <trkpt lat="42.95449" lon="0.44212">
        <ele>1538.4291992188</ele>
        <time>2021-01-07T12:53:08Z</time>
      </trkpt>
      <trkpt lat="42.95439" lon="0.44213">
        <ele>1544.2590332031</ele>
        <time>2021-01-07T12:53:39Z</time>
      </trkpt>
      <trkpt lat="42.95426" lon="0.44214">
        <ele>1547.5043945312</ele>
        <time>2021-01-07T12:54:26Z</time>
      </trkpt>
      <trkpt lat="42.95413" lon="0.44219">
        <ele>1555.8347167969</ele>
        <time>2021-01-07T12:55:28Z</time>
      </trkpt>
      <trkpt lat="42.95404" lon="0.44221">
        <ele>1560.2937011719</ele>
        <time>2021-01-07T12:55:58Z</time>
      </trkpt>
      <trkpt lat="42.95391" lon="0.44225">
        <ele>1567.25390625</ele>
        <time>2021-01-07T12:56:53Z</time>
      </trkpt>
      <trkpt lat="42.95381" lon="0.44225">
        <ele>1569.5659179688</ele>
        <time>2021-01-07T12:57:26Z</time>
      </trkpt>
      <trkpt lat="42.95372" lon="0.44228">
        <ele>1571.3642578125</ele>
        <time>2021-01-07T12:58:59Z</time>
      </trkpt>
      <trkpt lat="42.95364" lon="0.44235">
        <ele>1579.3466796875</ele>
        <time>2021-01-07T13:01:03Z</time>
      </trkpt>
      <trkpt lat="42.95356" lon="0.44239">
        <ele>1583.6860351562</ele>
        <time>2021-01-07T13:01:48Z</time>
      </trkpt>
      <trkpt lat="42.95347" lon="0.44243">
        <ele>1587.4326171875</ele>
        <time>2021-01-07T13:02:23Z</time>
      </trkpt>
      <trkpt lat="42.95338" lon="0.44239">
        <ele>1588.5654296875</ele>
        <time>2021-01-07T13:02:41Z</time>
      </trkpt>
      <trkpt lat="42.95329" lon="0.44237">
        <ele>1590.8984375</ele>
        <time>2021-01-07T13:02:55Z</time>
      </trkpt>
      <trkpt lat="42.95315" lon="0.44242">
        <ele>1594.2416992188</ele>
        <time>2021-01-07T13:03:29Z</time>
      </trkpt>
      <trkpt lat="42.95307" lon="0.44248">
        <ele>1598.2224121094</ele>
        <time>2021-01-07T13:03:49Z</time>
      </trkpt>
      <trkpt lat="42.95297" lon="0.44248">
        <ele>1600.5336914062</ele>
        <time>2021-01-07T13:04:12Z</time>
      </trkpt>
      <trkpt lat="42.95284" lon="0.44248">
        <ele>1603.7543945312</ele>
        <time>2021-01-07T13:04:42Z</time>
      </trkpt>
      <trkpt lat="42.95278" lon="0.44238">
        <ele>1605.1762695312</ele>
        <time>2021-01-07T13:05:06Z</time>
      </trkpt>
      <trkpt lat="42.95287" lon="0.44247">
        <ele>1601.5166015625</ele>
        <time>2021-01-07T13:12:32Z</time>
      </trkpt>
      <trkpt lat="42.95296" lon="0.44246">
        <ele>1601.4897460938</ele>
        <time>2021-01-07T13:12:43Z</time>
      </trkpt>
      <trkpt lat="42.95309" lon="0.44246">
        <ele>1599.0639648438</ele>
        <time>2021-01-07T13:12:59Z</time>
      </trkpt>
      <trkpt lat="42.95317" lon="0.44242">
        <ele>1595.6594238281</ele>
        <time>2021-01-07T13:13:09Z</time>
      </trkpt>
      <trkpt lat="42.95332" lon="0.44242">
        <ele>1589.087890625</ele>
        <time>2021-01-07T13:13:24Z</time>
      </trkpt>
      <trkpt lat="42.95324" lon="0.44235">
        <ele>1594.173828125</ele>
        <time>2021-01-07T13:14:47Z</time>
      </trkpt>
      <trkpt lat="42.95316" lon="0.44241">
        <ele>1594.880859375</ele>
        <time>2021-01-07T13:15:13Z</time>
      </trkpt>
      <trkpt lat="42.95308" lon="0.44248">
        <ele>1597.9318847656</ele>
        <time>2021-01-07T13:15:45Z</time>
      </trkpt>
      <trkpt lat="42.95299" lon="0.4425">
        <ele>1600.8728027344</ele>
        <time>2021-01-07T13:16:08Z</time>
      </trkpt>
      <trkpt lat="42.9529" lon="0.44248">
        <ele>1603.1059570312</ele>
        <time>2021-01-07T13:16:32Z</time>
      </trkpt>
      <trkpt lat="42.95279" lon="0.44241">
        <ele>1603.5629882812</ele>
        <time>2021-01-07T13:17:13Z</time>
      </trkpt>
      <trkpt lat="42.95269" lon="0.4424">
        <ele>1603.7338867188</ele>
        <time>2021-01-07T13:19:34Z</time>
      </trkpt>
      <trkpt lat="42.95259" lon="0.44237">
        <ele>1603.2312011719</ele>
        <time>2021-01-07T13:19:43Z</time>
      </trkpt>
      <trkpt lat="42.95249" lon="0.44238">
        <ele>1604.5541992188</ele>
        <time>2021-01-07T13:19:55Z</time>
      </trkpt>
      <trkpt lat="42.95239" lon="0.4425">
        <ele>1605.8916015625</ele>
        <time>2021-01-07T13:20:16Z</time>
      </trkpt>
      <trkpt lat="42.95233" lon="0.44259">
        <ele>1605.0100097656</ele>
        <time>2021-01-07T13:20:28Z</time>
      </trkpt>
      <trkpt lat="42.95225" lon="0.44269">
        <ele>1604.1831054688</ele>
        <time>2021-01-07T13:20:39Z</time>
      </trkpt>
      <trkpt lat="42.95219" lon="0.44279">
        <ele>1605.2358398438</ele>
        <time>2021-01-07T13:20:48Z</time>
      </trkpt>
      <trkpt lat="42.95215" lon="0.4429">
        <ele>1608.8549804688</ele>
        <time>2021-01-07T13:21:13Z</time>
      </trkpt>
      <trkpt lat="42.95207" lon="0.44298">
        <ele>1609.5446777344</ele>
        <time>2021-01-07T13:21:47Z</time>
      </trkpt>
      <trkpt lat="42.95201" lon="0.44307">
        <ele>1611.4045410156</ele>
        <time>2021-01-07T13:22:03Z</time>
      </trkpt>
      <trkpt lat="42.95194" lon="0.44316">
        <ele>1612.3857421875</ele>
        <time>2021-01-07T13:22:16Z</time>
      </trkpt>
      <trkpt lat="42.95189" lon="0.44328">
        <ele>1613.6030273438</ele>
        <time>2021-01-07T13:22:28Z</time>
      </trkpt>
      <trkpt lat="42.95184" lon="0.44338">
        <ele>1615.7705078125</ele>
        <time>2021-01-07T13:22:42Z</time>
      </trkpt>
      <trkpt lat="42.95177" lon="0.44347">
        <ele>1618.4975585938</ele>
        <time>2021-01-07T13:22:55Z</time>
      </trkpt>
      <trkpt lat="42.9517" lon="0.44356">
        <ele>1619.9077148438</ele>
        <time>2021-01-07T13:23:13Z</time>
      </trkpt>
      <trkpt lat="42.95163" lon="0.44366">
        <ele>1622.9614257812</ele>
        <time>2021-01-07T13:23:36Z</time>
      </trkpt>
      <trkpt lat="42.9516" lon="0.44378">
        <ele>1625.7338867188</ele>
        <time>2021-01-07T13:23:58Z</time>
      </trkpt>
      <trkpt lat="42.95155" lon="0.44389">
        <ele>1629.0344238281</ele>
        <time>2021-01-07T13:24:19Z</time>
      </trkpt>
      <trkpt lat="42.9515" lon="0.44402">
        <ele>1630.4658203125</ele>
        <time>2021-01-07T13:24:36Z</time>
      </trkpt>
      <trkpt lat="42.95146" lon="0.44413">
        <ele>1632.4001464844</ele>
        <time>2021-01-07T13:24:54Z</time>
      </trkpt>
      <trkpt lat="42.9514" lon="0.44423">
        <ele>1634.9799804688</ele>
        <time>2021-01-07T13:25:11Z</time>
      </trkpt>
      <trkpt lat="42.95136" lon="0.44434">
        <ele>1637.6630859375</ele>
        <time>2021-01-07T13:25:30Z</time>
      </trkpt>
      <trkpt lat="42.95132" lon="0.44446">
        <ele>1639.8515625</ele>
        <time>2021-01-07T13:25:48Z</time>
      </trkpt>
      <trkpt lat="42.95127" lon="0.44457">
        <ele>1643.1225585938</ele>
        <time>2021-01-07T13:26:09Z</time>
      </trkpt>
      <trkpt lat="42.95123" lon="0.44469">
        <ele>1644.3608398438</ele>
        <time>2021-01-07T13:26:29Z</time>
      </trkpt>
      <trkpt lat="42.95116" lon="0.44479">
        <ele>1644.5571289062</ele>
        <time>2021-01-07T13:26:45Z</time>
      </trkpt>
      <trkpt lat="42.9511" lon="0.44487">
        <ele>1645.9387207031</ele>
        <time>2021-01-07T13:26:59Z</time>
      </trkpt>
      <trkpt lat="42.95102" lon="0.44495">
        <ele>1644.7338867188</ele>
        <time>2021-01-07T13:27:13Z</time>
      </trkpt>
      <trkpt lat="42.95096" lon="0.44505">
        <ele>1647.431640625</ele>
        <time>2021-01-07T13:27:28Z</time>
      </trkpt>
      <trkpt lat="42.95092" lon="0.44516">
        <ele>1648.6577148438</ele>
        <time>2021-01-07T13:27:42Z</time>
      </trkpt>
      <trkpt lat="42.95083" lon="0.44521">
        <ele>1647.4106445312</ele>
        <time>2021-01-07T13:27:56Z</time>
      </trkpt>
      <trkpt lat="42.95075" lon="0.44528">
        <ele>1647.14453125</ele>
        <time>2021-01-07T13:28:07Z</time>
      </trkpt>
      <trkpt lat="42.95066" lon="0.44534">
        <ele>1647.5629882812</ele>
        <time>2021-01-07T13:28:18Z</time>
      </trkpt>
      <trkpt lat="42.95058" lon="0.44543">
        <ele>1648.4189453125</ele>
        <time>2021-01-07T13:28:32Z</time>
      </trkpt>
      <trkpt lat="42.95051" lon="0.44552">
        <ele>1650.294921875</ele>
        <time>2021-01-07T13:28:44Z</time>
      </trkpt>
      <trkpt lat="42.95043" lon="0.4456">
        <ele>1651.40625</ele>
        <time>2021-01-07T13:28:58Z</time>
      </trkpt>
      <trkpt lat="42.95035" lon="0.4457">
        <ele>1651.8706054688</ele>
        <time>2021-01-07T13:29:11Z</time>
      </trkpt>
      <trkpt lat="42.95028" lon="0.44578">
        <ele>1652.8000488281</ele>
        <time>2021-01-07T13:29:25Z</time>
      </trkpt>
      <trkpt lat="42.95023" lon="0.44589">
        <ele>1653.4614257812</ele>
        <time>2021-01-07T13:29:42Z</time>
      </trkpt>
      <trkpt lat="42.95016" lon="0.44599">
        <ele>1655.7155761719</ele>
        <time>2021-01-07T13:29:55Z</time>
      </trkpt>
      <trkpt lat="42.95009" lon="0.44608">
        <ele>1656.2026367188</ele>
        <time>2021-01-07T13:30:09Z</time>
      </trkpt>
      <trkpt lat="42.95002" lon="0.44617">
        <ele>1657.5424804688</ele>
        <time>2021-01-07T13:30:24Z</time>
      </trkpt>
      <trkpt lat="42.94996" lon="0.44627">
        <ele>1658.7141113281</ele>
        <time>2021-01-07T13:30:41Z</time>
      </trkpt>
      <trkpt lat="42.94989" lon="0.44636">
        <ele>1658.8669433594</ele>
        <time>2021-01-07T13:30:54Z</time>
      </trkpt>
      <trkpt lat="42.94982" lon="0.44645">
        <ele>1658.8134765625</ele>
        <time>2021-01-07T13:31:10Z</time>
      </trkpt>
      <trkpt lat="42.94974" lon="0.44652">
        <ele>1660.1567382812</ele>
        <time>2021-01-07T13:31:21Z</time>
      </trkpt>
      <trkpt lat="42.94968" lon="0.44662">
        <ele>1662.8283691406</ele>
        <time>2021-01-07T13:31:35Z</time>
      </trkpt>
      <trkpt lat="42.94961" lon="0.4467">
        <ele>1664.3352050781</ele>
        <time>2021-01-07T13:31:45Z</time>
      </trkpt>
      <trkpt lat="42.94954" lon="0.44678">
        <ele>1666.9177246094</ele>
        <time>2021-01-07T13:32:01Z</time>
      </trkpt>
      <trkpt lat="42.94947" lon="0.44687">
        <ele>1669.1552734375</ele>
        <time>2021-01-07T13:32:18Z</time>
      </trkpt>
      <trkpt lat="42.94943" lon="0.44699">
        <ele>1670.0771484375</ele>
        <time>2021-01-07T13:32:39Z</time>
      </trkpt>
      <trkpt lat="42.94934" lon="0.44711">
        <ele>1673.3522949219</ele>
        <time>2021-01-07T13:33:05Z</time>
      </trkpt>
      <trkpt lat="42.94929" lon="0.44722">
        <ele>1675.431640625</ele>
        <time>2021-01-07T13:33:24Z</time>
      </trkpt>
      <trkpt lat="42.94923" lon="0.44732">
        <ele>1679.6787109375</ele>
        <time>2021-01-07T13:33:45Z</time>
      </trkpt>
      <trkpt lat="42.94919" lon="0.44744">
        <ele>1683.0727539062</ele>
        <time>2021-01-07T13:34:05Z</time>
      </trkpt>
      <trkpt lat="42.94913" lon="0.44754">
        <ele>1684.6657714844</ele>
        <time>2021-01-07T13:34:22Z</time>
      </trkpt>
      <trkpt lat="42.94909" lon="0.44765">
        <ele>1686.9045410156</ele>
        <time>2021-01-07T13:34:42Z</time>
      </trkpt>
      <trkpt lat="42.94904" lon="0.44776">
        <ele>1688.5148925781</ele>
        <time>2021-01-07T13:34:59Z</time>
      </trkpt>
      <trkpt lat="42.94899" lon="0.44786">
        <ele>1689.0600585938</ele>
        <time>2021-01-07T13:35:15Z</time>
      </trkpt>
      <trkpt lat="42.94894" lon="0.44797">
        <ele>1692.234375</ele>
        <time>2021-01-07T13:35:46Z</time>
      </trkpt>
      <trkpt lat="42.94887" lon="0.44806">
        <ele>1694.0051269531</ele>
        <time>2021-01-07T13:36:47Z</time>
      </trkpt>
      <trkpt lat="42.94881" lon="0.44822">
        <ele>1696.9907226562</ele>
        <time>2021-01-07T13:37:06Z</time>
      </trkpt>
      <trkpt lat="42.94875" lon="0.44833">
        <ele>1695.7036132812</ele>
        <time>2021-01-07T13:37:17Z</time>
      </trkpt>
      <trkpt lat="42.94869" lon="0.44842">
        <ele>1697.4091796875</ele>
        <time>2021-01-07T13:37:28Z</time>
      </trkpt>
      <trkpt lat="42.94863" lon="0.44853">
        <ele>1697.5283203125</ele>
        <time>2021-01-07T13:37:40Z</time>
      </trkpt>
      <trkpt lat="42.94854" lon="0.44861">
        <ele>1702.8920898438</ele>
        <time>2021-01-07T13:48:36Z</time>
      </trkpt>
      <trkpt lat="42.94841" lon="0.44865">
        <ele>1698.4763183594</ele>
        <time>2021-01-07T13:48:53Z</time>
      </trkpt>
      <trkpt lat="42.94832" lon="0.4487">
        <ele>1697.4270019531</ele>
        <time>2021-01-07T13:49:03Z</time>
      </trkpt>
      <trkpt lat="42.94823" lon="0.44876">
        <ele>1695.3271484375</ele>
        <time>2021-01-07T13:49:13Z</time>
      </trkpt>
      <trkpt lat="42.94815" lon="0.44884">
        <ele>1694.4111328125</ele>
        <time>2021-01-07T13:49:22Z</time>
      </trkpt>
      <trkpt lat="42.94807" lon="0.4489">
        <ele>1694.9011230469</ele>
        <time>2021-01-07T13:49:30Z</time>
      </trkpt>
      <trkpt lat="42.94799" lon="0.44899">
        <ele>1696.216796875</ele>
        <time>2021-01-07T13:49:39Z</time>
      </trkpt>
      <trkpt lat="42.94791" lon="0.44907">
        <ele>1694.7314453125</ele>
        <time>2021-01-07T13:49:47Z</time>
      </trkpt>
      <trkpt lat="42.94784" lon="0.44917">
        <ele>1694.9467773438</ele>
        <time>2021-01-07T13:49:56Z</time>
      </trkpt>
      <trkpt lat="42.94776" lon="0.44925">
        <ele>1694.6918945312</ele>
        <time>2021-01-07T13:50:04Z</time>
      </trkpt>
      <trkpt lat="42.94769" lon="0.44934">
        <ele>1695.24609375</ele>
        <time>2021-01-07T13:50:13Z</time>
      </trkpt>
      <trkpt lat="42.94761" lon="0.44941">
        <ele>1695.8251953125</ele>
        <time>2021-01-07T13:50:21Z</time>
      </trkpt>
      <trkpt lat="42.94753" lon="0.44949">
        <ele>1694.2490234375</ele>
        <time>2021-01-07T13:50:29Z</time>
      </trkpt>
      <trkpt lat="42.94745" lon="0.44958">
        <ele>1693.6286621094</ele>
        <time>2021-01-07T13:50:36Z</time>
      </trkpt>
      <trkpt lat="42.94739" lon="0.44969">
        <ele>1692.2138671875</ele>
        <time>2021-01-07T13:50:44Z</time>
      </trkpt>
      <trkpt lat="42.94733" lon="0.4498">
        <ele>1691.1577148438</ele>
        <time>2021-01-07T13:50:52Z</time>
      </trkpt>
      <trkpt lat="42.94728" lon="0.44991">
        <ele>1689.1433105469</ele>
        <time>2021-01-07T13:50:59Z</time>
      </trkpt>
      <trkpt lat="42.94723" lon="0.45001">
        <ele>1688.1857910156</ele>
        <time>2021-01-07T13:51:06Z</time>
      </trkpt>
      <trkpt lat="42.94716" lon="0.45011">
        <ele>1684.8967285156</ele>
        <time>2021-01-07T13:51:15Z</time>
      </trkpt>
      <trkpt lat="42.94712" lon="0.45024">
        <ele>1684.365234375</ele>
        <time>2021-01-07T13:51:23Z</time>
      </trkpt>
      <trkpt lat="42.94706" lon="0.45035">
        <ele>1683.5151367188</ele>
        <time>2021-01-07T13:51:32Z</time>
      </trkpt>
      <trkpt lat="42.94702" lon="0.45047">
        <ele>1683.6826171875</ele>
        <time>2021-01-07T13:51:39Z</time>
      </trkpt>
      <trkpt lat="42.94696" lon="0.45059">
        <ele>1683.6848144531</ele>
        <time>2021-01-07T13:51:48Z</time>
      </trkpt>
      <trkpt lat="42.94688" lon="0.45049">
        <ele>1683.244140625</ele>
        <time>2021-01-07T13:51:55Z</time>
      </trkpt>
      <trkpt lat="42.94678" lon="0.45059">
        <ele>1688.6025390625</ele>
        <time>2021-01-07T13:52:16Z</time>
      </trkpt>
      <trkpt lat="42.94668" lon="0.45062">
        <ele>1687.3107910156</ele>
        <time>2021-01-07T13:52:24Z</time>
      </trkpt>
      <trkpt lat="42.94659" lon="0.45063">
        <ele>1685.5063476562</ele>
        <time>2021-01-07T13:52:33Z</time>
      </trkpt>
      <trkpt lat="42.9465" lon="0.45065">
        <ele>1683.32421875</ele>
        <time>2021-01-07T13:52:43Z</time>
      </trkpt>
      <trkpt lat="42.9464" lon="0.45065">
        <ele>1679.6123046875</ele>
        <time>2021-01-07T13:52:54Z</time>
      </trkpt>
      <trkpt lat="42.9463" lon="0.45064">
        <ele>1678.1459960938</ele>
        <time>2021-01-07T13:53:04Z</time>
      </trkpt>
      <trkpt lat="42.94621" lon="0.45063">
        <ele>1674.5727539062</ele>
        <time>2021-01-07T13:53:17Z</time>
      </trkpt>
      <trkpt lat="42.94612" lon="0.45061">
        <ele>1672.1186523438</ele>
        <time>2021-01-07T13:53:28Z</time>
      </trkpt>
      <trkpt lat="42.94603" lon="0.45063">
        <ele>1671.6088867188</ele>
        <time>2021-01-07T13:53:37Z</time>
      </trkpt>
      <trkpt lat="42.94593" lon="0.45063">
        <ele>1672.1667480469</ele>
        <time>2021-01-07T13:53:45Z</time>
      </trkpt>
      <trkpt lat="42.94583" lon="0.45065">
        <ele>1672.2309570312</ele>
        <time>2021-01-07T13:53:51Z</time>
      </trkpt>
      <trkpt lat="42.9457" lon="0.4507">
        <ele>1668.0041503906</ele>
        <time>2021-01-07T13:54:09Z</time>
      </trkpt>
      <trkpt lat="42.94561" lon="0.45069">
        <ele>1663.3693847656</ele>
        <time>2021-01-07T13:54:20Z</time>
      </trkpt>
      <trkpt lat="42.94552" lon="0.45067">
        <ele>1663.9560546875</ele>
        <time>2021-01-07T13:54:29Z</time>
      </trkpt>
      <trkpt lat="42.94541" lon="0.45067">
        <ele>1665.0576171875</ele>
        <time>2021-01-07T13:54:36Z</time>
      </trkpt>
      <trkpt lat="42.94532" lon="0.45068">
        <ele>1668.8701171875</ele>
        <time>2021-01-07T13:54:43Z</time>
      </trkpt>
      <trkpt lat="42.94525" lon="0.45082">
        <ele>1661.9580078125</ele>
        <time>2021-01-07T13:55:09Z</time>
      </trkpt>
      <trkpt lat="42.94516" lon="0.45088">
        <ele>1658.0227050781</ele>
        <time>2021-01-07T13:55:21Z</time>
      </trkpt>
      <trkpt lat="42.94507" lon="0.45092">
        <ele>1657.126953125</ele>
        <time>2021-01-07T13:55:33Z</time>
      </trkpt>
      <trkpt lat="42.94499" lon="0.45098">
        <ele>1654.9301757812</ele>
        <time>2021-01-07T13:55:46Z</time>
      </trkpt>
      <trkpt lat="42.9449" lon="0.45103">
        <ele>1654.3461914062</ele>
        <time>2021-01-07T13:56:13Z</time>
      </trkpt>
      <trkpt lat="42.94487" lon="0.4512">
        <ele>1653.73828125</ele>
        <time>2021-01-07T13:56:43Z</time>
      </trkpt>
      <trkpt lat="42.94481" lon="0.45129">
        <ele>1654.9614257812</ele>
        <time>2021-01-07T13:56:50Z</time>
      </trkpt>
      <trkpt lat="42.94472" lon="0.45136">
        <ele>1651.3293457031</ele>
        <time>2021-01-07T13:57:01Z</time>
      </trkpt>
      <trkpt lat="42.94464" lon="0.45143">
        <ele>1648.9428710938</ele>
        <time>2021-01-07T13:57:25Z</time>
      </trkpt>
      <trkpt lat="42.94461" lon="0.45129">
        <ele>1646.8645019531</ele>
        <time>2021-01-07T13:59:58Z</time>
      </trkpt>
      <trkpt lat="42.94453" lon="0.45114">
        <ele>1644.1235351562</ele>
        <time>2021-01-07T14:00:50Z</time>
      </trkpt>
      <trkpt lat="42.94445" lon="0.45106">
        <ele>1642.4580078125</ele>
        <time>2021-01-07T14:00:57Z</time>
      </trkpt>
      <trkpt lat="42.94437" lon="0.45101">
        <ele>1641.8908691406</ele>
        <time>2021-01-07T14:01:05Z</time>
      </trkpt>
      <trkpt lat="42.94427" lon="0.45102">
        <ele>1640.6494140625</ele>
        <time>2021-01-07T14:01:15Z</time>
      </trkpt>
      <trkpt lat="42.94417" lon="0.45104">
        <ele>1640.1640625</ele>
        <time>2021-01-07T14:01:24Z</time>
      </trkpt>
      <trkpt lat="42.94408" lon="0.45105">
        <ele>1639.3779296875</ele>
        <time>2021-01-07T14:01:33Z</time>
      </trkpt>
      <trkpt lat="42.94398" lon="0.45106">
        <ele>1638.638671875</ele>
        <time>2021-01-07T14:01:40Z</time>
      </trkpt>
      <trkpt lat="42.94387" lon="0.45104">
        <ele>1640.58984375</ele>
        <time>2021-01-07T14:01:47Z</time>
      </trkpt>
      <trkpt lat="42.94378" lon="0.45107">
        <ele>1639.6115722656</ele>
        <time>2021-01-07T14:01:58Z</time>
      </trkpt>
      <trkpt lat="42.94368" lon="0.45109">
        <ele>1639.2624511719</ele>
        <time>2021-01-07T14:02:05Z</time>
      </trkpt>
      <trkpt lat="42.94359" lon="0.45112">
        <ele>1640.0505371094</ele>
        <time>2021-01-07T14:02:13Z</time>
      </trkpt>
      <trkpt lat="42.9435" lon="0.45118">
        <ele>1641.3920898438</ele>
        <time>2021-01-07T14:02:20Z</time>
      </trkpt>
      <trkpt lat="42.94341" lon="0.45124">
        <ele>1640.3549804688</ele>
        <time>2021-01-07T14:02:29Z</time>
      </trkpt>
      <trkpt lat="42.94333" lon="0.45129">
        <ele>1639.8120117188</ele>
        <time>2021-01-07T14:02:39Z</time>
      </trkpt>
      <trkpt lat="42.94325" lon="0.45135">
        <ele>1639.0358886719</ele>
        <time>2021-01-07T14:02:49Z</time>
      </trkpt>
      <trkpt lat="42.94318" lon="0.45144">
        <ele>1638.8791503906</ele>
        <time>2021-01-07T14:03:01Z</time>
      </trkpt>
      <trkpt lat="42.94309" lon="0.45151">
        <ele>1640.1767578125</ele>
        <time>2021-01-07T14:03:12Z</time>
      </trkpt>
      <trkpt lat="42.94301" lon="0.45156">
        <ele>1640.1713867188</ele>
        <time>2021-01-07T14:03:22Z</time>
      </trkpt>
      <trkpt lat="42.94292" lon="0.45162">
        <ele>1639.515625</ele>
        <time>2021-01-07T14:03:32Z</time>
      </trkpt>
      <trkpt lat="42.94283" lon="0.45167">
        <ele>1641.1708984375</ele>
        <time>2021-01-07T14:03:40Z</time>
      </trkpt>
      <trkpt lat="42.94275" lon="0.45173">
        <ele>1642.1599121094</ele>
        <time>2021-01-07T14:03:47Z</time>
      </trkpt>
      <trkpt lat="42.94266" lon="0.45178">
        <ele>1642.6408691406</ele>
        <time>2021-01-07T14:03:55Z</time>
      </trkpt>
      <trkpt lat="42.94257" lon="0.45184">
        <ele>1642.2934570312</ele>
        <time>2021-01-07T14:04:02Z</time>
      </trkpt>
      <trkpt lat="42.94248" lon="0.4519">
        <ele>1642.75</ele>
        <time>2021-01-07T14:04:10Z</time>
      </trkpt>
      <trkpt lat="42.94239" lon="0.45195">
        <ele>1642.3100585938</ele>
        <time>2021-01-07T14:04:22Z</time>
      </trkpt>
      <trkpt lat="42.94231" lon="0.45204">
        <ele>1642.658203125</ele>
        <time>2021-01-07T14:04:31Z</time>
      </trkpt>
      <trkpt lat="42.94224" lon="0.45214">
        <ele>1644.810546875</ele>
        <time>2021-01-07T14:04:40Z</time>
      </trkpt>
      <trkpt lat="42.94216" lon="0.45223">
        <ele>1640.6215820312</ele>
        <time>2021-01-07T14:04:53Z</time>
      </trkpt>
      <trkpt lat="42.9421" lon="0.45233">
        <ele>1639.7119140625</ele>
        <time>2021-01-07T14:05:02Z</time>
      </trkpt>
      <trkpt lat="42.94204" lon="0.45243">
        <ele>1638.4560546875</ele>
        <time>2021-01-07T14:05:22Z</time>
      </trkpt>
      <trkpt lat="42.94213" lon="0.45242">
        <ele>1642.6533203125</ele>
        <time>2021-01-07T14:08:24Z</time>
      </trkpt>
      <trkpt lat="42.94222" lon="0.4524">
        <ele>1639.4458007812</ele>
        <time>2021-01-07T14:08:53Z</time>
      </trkpt>
      <trkpt lat="42.94232" lon="0.4524">
        <ele>1636.0529785156</ele>
        <time>2021-01-07T14:09:07Z</time>
      </trkpt>
      <trkpt lat="42.94233" lon="0.45252">
        <ele>1633.9721679688</ele>
        <time>2021-01-07T14:09:20Z</time>
      </trkpt>
      <trkpt lat="42.94235" lon="0.45265">
        <ele>1633.0434570312</ele>
        <time>2021-01-07T14:09:32Z</time>
      </trkpt>
      <trkpt lat="42.94241" lon="0.45282">
        <ele>1631.0808105469</ele>
        <time>2021-01-07T14:09:46Z</time>
      </trkpt>
      <trkpt lat="42.94247" lon="0.45292">
        <ele>1627.61328125</ele>
        <time>2021-01-07T14:09:56Z</time>
      </trkpt>
      <trkpt lat="42.94254" lon="0.45302">
        <ele>1622.79296875</ele>
        <time>2021-01-07T14:10:05Z</time>
      </trkpt>
      <trkpt lat="42.94261" lon="0.45313">
        <ele>1619.7646484375</ele>
        <time>2021-01-07T14:10:14Z</time>
      </trkpt>
      <trkpt lat="42.94268" lon="0.45323">
        <ele>1618.9011230469</ele>
        <time>2021-01-07T14:10:21Z</time>
      </trkpt>
      <trkpt lat="42.94277" lon="0.45324">
        <ele>1617.3579101562</ele>
        <time>2021-01-07T14:10:31Z</time>
      </trkpt>
      <trkpt lat="42.94285" lon="0.45332">
        <ele>1616.8256835938</ele>
        <time>2021-01-07T14:10:40Z</time>
      </trkpt>
      <trkpt lat="42.94292" lon="0.45342">
        <ele>1612.7219238281</ele>
        <time>2021-01-07T14:10:50Z</time>
      </trkpt>
      <trkpt lat="42.94298" lon="0.45353">
        <ele>1610.5749511719</ele>
        <time>2021-01-07T14:11:00Z</time>
      </trkpt>
      <trkpt lat="42.94304" lon="0.45362">
        <ele>1608.033203125</ele>
        <time>2021-01-07T14:11:09Z</time>
      </trkpt>
      <trkpt lat="42.94311" lon="0.45372">
        <ele>1606.6333007812</ele>
        <time>2021-01-07T14:11:17Z</time>
      </trkpt>
      <trkpt lat="42.94319" lon="0.4538">
        <ele>1605.0959472656</ele>
        <time>2021-01-07T14:11:24Z</time>
      </trkpt>
      <trkpt lat="42.94328" lon="0.45385">
        <ele>1601.2319335938</ele>
        <time>2021-01-07T14:11:33Z</time>
      </trkpt>
      <trkpt lat="42.94336" lon="0.45392">
        <ele>1600.4775390625</ele>
        <time>2021-01-07T14:11:39Z</time>
      </trkpt>
      <trkpt lat="42.94344" lon="0.45401">
        <ele>1601.6020507812</ele>
        <time>2021-01-07T14:11:46Z</time>
      </trkpt>
      <trkpt lat="42.94349" lon="0.45411">
        <ele>1599.6591796875</ele>
        <time>2021-01-07T14:11:54Z</time>
      </trkpt>
      <trkpt lat="42.94355" lon="0.45422">
        <ele>1601.2897949219</ele>
        <time>2021-01-07T14:12:01Z</time>
      </trkpt>
      <trkpt lat="42.94362" lon="0.45432">
        <ele>1599.607421875</ele>
        <time>2021-01-07T14:12:10Z</time>
      </trkpt>
      <trkpt lat="42.94367" lon="0.45443">
        <ele>1599.2666015625</ele>
        <time>2021-01-07T14:12:18Z</time>
      </trkpt>
      <trkpt lat="42.94366" lon="0.45459">
        <ele>1597.3166503906</ele>
        <time>2021-01-07T14:12:34Z</time>
      </trkpt>
      <trkpt lat="42.94369" lon="0.45472">
        <ele>1596.9125976562</ele>
        <time>2021-01-07T14:12:42Z</time>
      </trkpt>
      <trkpt lat="42.94371" lon="0.45484">
        <ele>1594.7817382812</ele>
        <time>2021-01-07T14:12:50Z</time>
      </trkpt>
      <trkpt lat="42.94378" lon="0.45494">
        <ele>1593.2331542969</ele>
        <time>2021-01-07T14:12:59Z</time>
      </trkpt>
      <trkpt lat="42.94383" lon="0.45506">
        <ele>1592.4560546875</ele>
        <time>2021-01-07T14:13:09Z</time>
      </trkpt>
      <trkpt lat="42.94385" lon="0.45518">
        <ele>1591.2485351562</ele>
        <time>2021-01-07T14:13:18Z</time>
      </trkpt>
      <trkpt lat="42.94387" lon="0.45531">
        <ele>1588.0732421875</ele>
        <time>2021-01-07T14:13:28Z</time>
      </trkpt>
      <trkpt lat="42.94389" lon="0.45544">
        <ele>1587.740234375</ele>
        <time>2021-01-07T14:13:37Z</time>
      </trkpt>
      <trkpt lat="42.94385" lon="0.45562">
        <ele>1588.8325195312</ele>
        <time>2021-01-07T14:13:59Z</time>
      </trkpt>
      <trkpt lat="42.94389" lon="0.45574">
        <ele>1593.1123046875</ele>
        <time>2021-01-07T14:14:06Z</time>
      </trkpt>
      <trkpt lat="42.94393" lon="0.45588">
        <ele>1594.1296386719</ele>
        <time>2021-01-07T14:14:14Z</time>
      </trkpt>
      <trkpt lat="42.94395" lon="0.45601">
        <ele>1593.6303710938</ele>
        <time>2021-01-07T14:14:22Z</time>
      </trkpt>
      <trkpt lat="42.94399" lon="0.45613">
        <ele>1593.2946777344</ele>
        <time>2021-01-07T14:14:33Z</time>
      </trkpt>
      <trkpt lat="42.94407" lon="0.4562">
        <ele>1595.625</ele>
        <time>2021-01-07T14:15:34Z</time>
      </trkpt>
      <trkpt lat="42.9441" lon="0.45636">
        <ele>1596.3923339844</ele>
        <time>2021-01-07T14:18:13Z</time>
      </trkpt>
      <trkpt lat="42.94411" lon="0.45649">
        <ele>1595.8520507812</ele>
        <time>2021-01-07T14:18:21Z</time>
      </trkpt>
      <trkpt lat="42.94414" lon="0.45662">
        <ele>1595.2238769531</ele>
        <time>2021-01-07T14:18:30Z</time>
      </trkpt>
      <trkpt lat="42.94417" lon="0.45675">
        <ele>1593.7221679688</ele>
        <time>2021-01-07T14:18:39Z</time>
      </trkpt>
      <trkpt lat="42.9442" lon="0.45687">
        <ele>1593.5322265625</ele>
        <time>2021-01-07T14:18:47Z</time>
      </trkpt>
      <trkpt lat="42.94424" lon="0.45701">
        <ele>1593.1677246094</ele>
        <time>2021-01-07T14:18:58Z</time>
      </trkpt>
      <trkpt lat="42.94417" lon="0.45687">
        <ele>1589.4465332031</ele>
        <time>2021-01-07T14:20:25Z</time>
      </trkpt>
      <trkpt lat="42.9442" lon="0.45705">
        <ele>1591.3913574219</ele>
        <time>2021-01-07T14:26:38Z</time>
      </trkpt>
      <trkpt lat="42.94424" lon="0.45717">
        <ele>1593.2875976562</ele>
        <time>2021-01-07T14:26:52Z</time>
      </trkpt>
      <trkpt lat="42.94421" lon="0.45705">
        <ele>1589.5830078125</ele>
        <time>2021-01-07T14:28:07Z</time>
      </trkpt>
    </trkseg>
  </trk>
</gpx>